Time,TemperatureF,DewpointF,PressureIn,WindDirection,WindDirectionDegrees,WindSpeedMPH,WindSpeedGustMPH,Humidity,HourlyPrecipIn,Conditions,Clouds,dailyrainin,SolarRadiationWatts/m^2,SoftwareType,DateUTC
2013-07-07 02:32:00,77.0,72.0,29.99,NW,321,0.0,4.0,86,0.00,,,0.00,0.000000,,2013-07-07 06:32:00,
2013-07-07 02:43:00,77.0,72.0,29.99,NW,321,0.0,4.0,86,0.00,,,0.00,0.000000,,2013-07-07 06:43:00,
2013-07-07 02:52:00,77.0,72.0,29.99,NW,321,0.0,4.0,86,0.00,,,0.00,0.000000,,2013-07-07 06:52:00,
2013-07-07 03:02:00,77.0,72.0,29.99,NW,321,0.0,4.0,86,0.00,,,0.00,0.000000,,2013-07-07 07:02:00,
2013-07-07 03:11:00,76.0,72.0,29.99,NW,305,0.0,2.0,87,0.00,,,0.00,0.000000,,2013-07-07 07:11:00,
2013-07-07 03:22:00,76.0,72.0,29.99,NW,305,0.0,2.0,87,0.00,,,0.00,0.000000,,2013-07-07 07:22:00,
2013-07-07 03:33:00,75.0,71.0,29.99,NW,321,0.0,5.0,87,0.00,,,0.00,0.000000,,2013-07-07 07:33:00,
2013-07-07 03:44:00,75.0,71.0,29.99,WNW,297,1.0,4.0,86,0.00,,,0.00,0.000000,,2013-07-07 07:44:00,
2013-07-07 03:53:00,75.0,71.0,29.99,NW,313,1.0,4.0,86,0.00,,,0.00,0.000000,,2013-07-07 07:53:00,
2013-07-07 04:01:00,75.0,71.0,29.98,NW,321,0.0,6.0,87,0.00,,,0.00,0.000000,,2013-07-07 08:01:00,
2013-07-07 04:03:00,75.0,71.0,29.98,NW,324,0.0,4.0,86,0.00,,,0.00,0.000000,,2013-07-07 08:03:00,
2013-07-07 04:12:00,75.0,71.0,29.98,NW,324,0.0,4.0,86,0.00,,,0.00,0.000000,,2013-07-07 08:12:00,
2013-07-07 04:22:00,75.0,71.0,29.98,NW,321,0.0,6.0,87,0.00,,,0.00,0.000000,,2013-07-07 08:22:00,
2013-07-07 04:34:00,75.0,71.0,29.98,NW,321,0.0,6.0,87,0.00,,,0.00,0.000000,,2013-07-07 08:34:00,
2013-07-07 04:44:00,75.0,71.0,29.98,NW,321,0.0,6.0,87,0.00,,,0.00,0.000000,,2013-07-07 08:44:00,
2013-07-07 04:53:00,75.0,71.0,29.98,NW,321,0.0,6.0,87,0.00,,,0.00,0.000000,,2013-07-07 08:53:00,
2013-07-07 05:34:00,74.0,70.0,29.98,WNW,303,1.0,6.0,88,0.00,,,0.00,0.000000,,2013-07-07 09:34:00,
2013-07-07 05:41:00,73.0,70.0,29.98,West,278,0.0,4.0,89,0.00,,,0.00,11.000000,,2013-07-07 09:41:00,
2013-07-07 05:43:00,74.0,70.0,29.98,WNW,301,0.0,2.0,88,0.00,,,0.00,0.000000,,2013-07-07 09:43:00,
2013-07-07 05:53:00,73.0,69.0,29.98,WNW,302,1.0,4.0,88,0.00,,,0.00,7.000000,,2013-07-07 09:53:00,
2013-07-07 06:03:00,73.0,70.0,29.98,West,278,0.0,4.0,89,0.00,,,0.00,11.000000,,2013-07-07 10:03:00,
2013-07-07 06:12:00,73.0,70.0,29.98,West,278,0.0,4.0,89,0.00,,,0.00,11.000000,,2013-07-07 10:12:00,
2013-07-07 06:22:00,73.0,70.0,29.98,West,278,0.0,4.0,89,0.00,,,0.00,11.000000,,2013-07-07 10:22:00,
2013-07-07 06:32:00,73.0,70.0,29.98,West,278,0.0,4.0,89,0.00,,,0.00,11.000000,,2013-07-07 10:32:00,
2013-07-07 07:34:00,77.0,74.0,30.00,WSW,252,0.0,5.0,90,0.00,,,0.00,60.000000,,2013-07-07 11:34:00,
2013-07-07 07:43:00,78.0,74.0,30.00,SW,234,1.0,6.0,89,0.00,,,0.00,63.000000,,2013-07-07 11:43:00,
2013-07-07 07:53:00,79.0,75.0,30.00,WSW,254,0.0,4.0,88,0.00,,,0.00,65.000000,,2013-07-07 11:53:00,
2013-07-07 08:02:00,79.0,74.0,30.00,West,278,0.0,2.0,85,0.00,,,0.00,67.000000,,2013-07-07 12:02:00,
2013-07-07 08:12:00,80.0,75.0,30.00,West,262,0.0,3.0,84,0.00,,,0.00,77.000000,,2013-07-07 12:12:00,
2013-07-07 08:22:00,80.0,75.0,30.00,West,262,0.0,3.0,84,0.00,,,0.00,77.000000,,2013-07-07 12:22:00,
2013-07-07 08:34:00,81.0,75.0,30.00,WSW,246,0.0,5.0,82,0.00,,,0.00,244.000000,,2013-07-07 12:34:00,
2013-07-07 08:43:00,81.0,75.0,30.00,WSW,246,0.0,5.0,82,0.00,,,0.00,244.000000,,2013-07-07 12:43:00,
2013-07-07 08:52:00,81.0,75.0,30.00,WSW,246,0.0,5.0,82,0.00,,,0.00,244.000000,,2013-07-07 12:52:00,
2013-07-07 09:03:00,83.0,74.0,30.00,WNW,293,1.0,7.0,74,0.00,,,0.00,91.000000,,2013-07-07 13:03:00,
2013-07-07 09:12:00,83.0,74.0,30.00,WNW,293,1.0,7.0,74,0.00,,,0.00,91.000000,,2013-07-07 13:12:00,
2013-07-07 09:22:00,84.0,74.0,29.99,West,264,1.0,8.0,73,0.00,,,0.00,192.000000,,2013-07-07 13:22:00,
2013-07-07 09:34:00,84.0,74.0,29.99,NW,323,1.0,8.0,72,0.00,,,0.00,638.000000,,2013-07-07 13:34:00,
2013-07-07 09:43:00,84.0,74.0,29.99,NW,323,1.0,8.0,72,0.00,,,0.00,638.000000,,2013-07-07 13:43:00,
2013-07-07 09:52:00,84.0,74.0,29.99,NW,323,1.0,8.0,72,0.00,,,0.00,638.000000,,2013-07-07 13:52:00,
2013-07-07 10:02:00,84.0,74.0,29.99,NW,323,1.0,8.0,72,0.00,,,0.00,638.000000,,2013-07-07 14:02:00,
2013-07-07 10:12:00,87.0,74.0,29.99,WNW,288,0.0,9.0,66,0.00,,,0.00,130.000000,,2013-07-07 14:12:00,
2013-07-07 10:22:00,87.0,76.0,29.99,West,261,1.0,8.0,70,0.00,,,0.00,130.000000,,2013-07-07 14:22:00,
2013-07-07 10:34:00,87.0,76.0,29.99,West,261,1.0,8.0,70,0.00,,,0.00,130.000000,,2013-07-07 14:34:00,
2013-07-07 10:43:00,87.0,76.0,29.99,West,261,1.0,8.0,70,0.00,,,0.00,130.000000,,2013-07-07 14:43:00,
2013-07-07 10:53:00,88.0,75.0,29.99,West,279,2.0,8.0,66,0.00,,,0.00,809.000000,,2013-07-07 14:53:00,
2013-07-07 11:02:00,88.0,76.0,29.99,WNW,292,3.0,10.0,67,0.00,,,0.00,325.000000,,2013-07-07 15:02:00,
2013-07-07 11:12:00,88.0,75.0,29.99,WNW,287,4.0,10.0,66,0.00,,,0.00,615.000000,,2013-07-07 15:12:00,
2013-07-07 11:22:00,89.0,77.0,29.98,NNW,327,2.0,8.0,67,0.00,,,0.00,132.000000,,2013-07-07 15:22:00,
2013-07-07 11:34:00,89.0,77.0,29.98,NNW,327,2.0,8.0,67,0.00,,,0.00,132.000000,,2013-07-07 15:34:00,
2013-07-07 11:43:00,89.0,76.0,29.98,SW,229,4.0,9.0,65,0.00,,,0.00,141.000000,,2013-07-07 15:43:00,
2013-07-07 11:52:00,90.0,76.0,29.98,West,280,4.0,8.0,63,0.00,,,0.00,519.000000,,2013-07-07 15:52:00,
2013-07-07 12:02:00,90.0,76.0,29.98,West,280,4.0,8.0,63,0.00,,,0.00,519.000000,,2013-07-07 16:02:00,
2013-07-07 12:11:00,90.0,76.0,29.97,WSW,251,3.0,9.0,64,0.00,,,0.00,373.000000,,2013-07-07 16:11:00,
2013-07-07 12:23:00,90.0,77.0,29.97,SW,231,8.0,12.0,65,0.00,,,0.00,174.000000,,2013-07-07 16:23:00,
2013-07-07 12:43:00,90.0,77.0,29.97,SW,233,5.0,10.0,65,0.00,,,0.00,954.000000,,2013-07-07 16:43:00,
2013-07-07 12:53:00,91.0,76.0,29.97,SW,224,9.0,13.0,62,0.00,,,0.00,436.000000,,2013-07-07 16:53:00,
2013-07-07 13:02:00,90.0,76.0,29.97,West,259,3.0,13.0,63,0.00,,,0.00,615.000000,,2013-07-07 17:02:00,
2013-07-07 13:12:00,89.0,75.0,29.97,WSW,238,7.0,14.0,64,0.00,,,0.00,693.000000,,2013-07-07 17:12:00,
2013-07-07 13:22:00,89.0,75.0,29.97,WSW,238,7.0,14.0,64,0.00,,,0.00,693.000000,,2013-07-07 17:22:00,
2013-07-07 13:34:00,89.0,75.0,29.97,WSW,240,6.0,14.0,64,0.00,,,0.00,816.000000,,2013-07-07 17:34:00,
2013-07-07 13:43:00,89.0,75.0,29.97,WSW,240,6.0,14.0,64,0.00,,,0.00,816.000000,,2013-07-07 17:43:00,
2013-07-07 13:53:00,90.0,76.0,29.97,SW,221,7.0,15.0,63,0.00,,,0.00,853.000000,,2013-07-07 17:53:00,
2013-07-07 14:02:00,90.0,76.0,29.97,SW,221,7.0,15.0,63,0.00,,,0.00,853.000000,,2013-07-07 18:02:00,
2013-07-07 14:12:00,90.0,76.0,29.96,WSW,242,4.0,13.0,63,0.00,,,0.00,777.000000,,2013-07-07 18:12:00,
2013-07-07 14:22:00,90.0,75.0,29.96,SW,215,6.0,14.0,62,0.00,,,0.00,886.000000,,2013-07-07 18:22:00,
2013-07-07 14:33:00,90.0,75.0,29.96,SW,215,6.0,14.0,62,0.00,,,0.00,886.000000,,2013-07-07 18:33:00,
2013-07-07 14:43:00,90.0,75.0,29.96,SW,215,6.0,14.0,62,0.00,,,0.00,886.000000,,2013-07-07 18:43:00,
2013-07-07 14:53:00,89.0,76.0,29.96,SW,223,8.0,11.0,66,0.00,,,0.00,768.000000,,2013-07-07 18:53:00,
2013-07-07 15:01:00,89.0,76.0,29.96,SW,223,8.0,11.0,66,0.00,,,0.00,768.000000,,2013-07-07 19:01:00,
2013-07-07 15:11:00,89.0,76.0,29.96,SW,223,8.0,11.0,66,0.00,,,0.00,768.000000,,2013-07-07 19:11:00,
2013-07-07 15:22:00,89.0,76.0,29.94,SW,225,5.0,14.0,66,0.00,,,0.00,816.000000,,2013-07-07 19:22:00,
2013-07-07 15:31:00,86.0,76.0,29.94,SW,223,5.0,13.0,72,0.00,,,0.00,62.000000,,2013-07-07 19:31:00,
2013-07-07 15:34:00,89.0,76.0,29.94,SW,225,5.0,14.0,66,0.00,,,0.00,816.000000,,2013-07-07 19:34:00,
2013-07-07 15:43:00,89.0,76.0,29.94,SW,225,5.0,14.0,66,0.00,,,0.00,816.000000,,2013-07-07 19:43:00,
2013-07-07 15:54:00,86.0,76.0,29.94,SW,223,5.0,13.0,72,0.00,,,0.00,62.000000,,2013-07-07 19:54:00,
2013-07-07 16:02:00,86.0,76.0,29.94,SW,223,5.0,13.0,72,0.00,,,0.00,62.000000,,2013-07-07 20:02:00,
2013-07-07 16:11:00,86.0,76.0,29.94,SW,223,5.0,13.0,72,0.00,,,0.00,62.000000,,2013-07-07 20:11:00,
2013-07-07 16:22:00,86.0,76.0,29.94,SW,223,5.0,13.0,72,0.00,,,0.00,62.000000,,2013-07-07 20:22:00,
2013-07-07 16:42:00,84.0,76.0,29.93,WSW,248,3.0,11.0,76,0.00,,,0.00,178.000000,,2013-07-07 20:42:00,
2013-07-07 16:53:00,85.0,75.0,29.94,WSW,254,7.0,13.0,73,0.00,,,0.00,98.000000,,2013-07-07 20:53:00,
2013-07-07 17:02:00,85.0,75.0,29.94,WSW,254,7.0,13.0,73,0.00,,,0.00,98.000000,,2013-07-07 21:02:00,
2013-07-07 17:11:00,84.0,72.0,29.93,SW,228,5.0,12.0,68,0.00,,,0.00,93.000000,,2013-07-07 21:11:00,
2013-07-07 17:12:00,85.0,75.0,29.94,WSW,254,7.0,13.0,73,0.00,,,0.00,98.000000,,2013-07-07 21:12:00,
2013-07-07 17:22:00,85.0,73.0,29.93,SW,221,6.0,12.0,68,0.00,,,0.00,98.000000,,2013-07-07 21:22:00,
2013-07-07 17:33:00,84.0,72.0,29.93,SW,228,5.0,12.0,68,0.00,,,0.00,93.000000,,2013-07-07 21:33:00,
2013-07-07 17:44:00,84.0,72.0,29.93,SW,228,5.0,12.0,68,0.00,,,0.00,93.000000,,2013-07-07 21:44:00,
2013-07-07 17:53:00,84.0,72.0,29.93,SW,228,5.0,12.0,68,0.00,,,0.00,93.000000,,2013-07-07 21:53:00,
2013-07-07 18:01:00,84.0,72.0,29.93,SW,228,5.0,12.0,68,0.00,,,0.00,93.000000,,2013-07-07 22:01:00,
2013-07-07 18:22:00,82.0,72.0,29.93,SW,225,3.0,11.0,71,0.00,,,0.00,76.000000,,2013-07-07 22:22:00,
2013-07-07 18:34:00,82.0,72.0,29.93,SW,225,2.0,7.0,72,0.00,,,0.00,70.000000,,2013-07-07 22:34:00,
2013-07-07 18:44:00,82.0,72.0,29.93,SSW,208,2.0,7.0,73,0.00,,,0.00,58.000000,,2013-07-07 22:44:00,
2013-07-07 18:54:00,82.0,73.0,29.92,SW,214,0.0,4.0,74,0.00,,,0.00,51.000000,,2013-07-07 22:54:00,
2013-07-07 19:02:00,82.0,73.0,29.92,SW,214,0.0,4.0,74,0.00,,,0.00,51.000000,,2013-07-07 23:02:00,
2013-07-07 19:12:00,81.0,72.0,29.92,SSW,205,5.0,9.0,75,0.00,,,0.00,40.000000,,2013-07-07 23:12:00,
2013-07-07 19:22:00,81.0,72.0,29.92,SSW,205,5.0,9.0,75,0.00,,,0.00,40.000000,,2013-07-07 23:22:00,
2013-07-07 19:33:00,81.0,72.0,29.92,SSW,205,5.0,9.0,75,0.00,,,0.00,40.000000,,2013-07-07 23:33:00,
2013-07-07 19:43:00,80.0,72.0,29.91,SW,227,9.0,14.0,77,0.00,,,0.00,23.000000,,2013-07-07 23:43:00,
2013-07-07 19:53:00,79.0,72.0,29.91,SSW,210,7.0,14.0,78,0.00,,,0.00,18.000000,,2013-07-07 23:53:00,
2013-07-07 20:02:00,79.0,73.0,29.91,SW,228,9.0,15.0,81,0.00,,,0.00,12.000000,,2013-07-08 00:02:00,
2013-07-07 20:12:00,78.0,72.0,29.91,SW,221,6.0,12.0,83,0.00,,,0.00,7.000000,,2013-07-08 00:12:00,
2013-07-07 20:22:00,78.0,73.0,29.91,SW,233,10.0,18.0,84,0.00,,,0.00,5.000000,,2013-07-08 00:22:00,
2013-07-07 20:33:00,77.0,72.0,29.92,SW,224,9.0,16.0,85,0.00,,,0.00,0.000000,,2013-07-08 00:33:00,
2013-07-07 20:43:00,77.0,72.0,29.92,SW,231,7.0,13.0,86,0.00,,,0.00,0.000000,,2013-07-08 00:43:00,
2013-07-07 20:53:00,77.0,72.0,29.92,SW,231,7.0,13.0,86,0.00,,,0.00,0.000000,,2013-07-08 00:53:00,
2013-07-07 21:01:00,77.0,72.0,29.92,SW,231,7.0,13.0,86,0.00,,,0.00,0.000000,,2013-07-08 01:01:00,
2013-07-07 21:11:00,77.0,73.0,29.93,WSW,239,6.0,15.0,88,0.00,,,0.00,0.000000,,2013-07-08 01:11:00,
2013-07-07 21:22:00,77.0,73.0,29.93,WSW,239,6.0,15.0,88,0.00,,,0.00,0.000000,,2013-07-08 01:22:00,
2013-07-07 21:32:00,76.0,72.0,29.93,SW,233,6.0,13.0,88,0.00,,,0.00,0.000000,,2013-07-08 01:32:00,
2013-07-07 21:43:00,76.0,72.0,29.93,SW,233,6.0,13.0,88,0.00,,,0.00,0.000000,,2013-07-08 01:43:00,
2013-07-07 21:53:00,76.0,73.0,29.94,SSW,212,5.0,11.0,90,0.00,,,0.00,0.000000,,2013-07-08 01:53:00,
2013-07-07 22:03:00,76.0,73.0,29.94,SW,217,5.0,12.0,90,0.00,,,0.00,0.000000,,2013-07-08 02:03:00,
2013-07-07 22:11:00,75.0,72.0,29.94,SW,228,7.0,11.0,91,0.00,,,0.00,0.000000,,2013-07-08 02:11:00,
2013-07-07 22:22:00,75.0,72.0,29.94,SSW,213,5.0,11.0,91,0.00,,,0.00,0.000000,,2013-07-08 02:22:00,
2013-07-07 22:33:00,75.0,73.0,29.94,SW,228,4.0,10.0,92,0.00,,,0.00,0.000000,,2013-07-08 02:33:00,
2013-07-07 22:42:00,75.0,73.0,29.94,SW,228,4.0,10.0,92,0.00,,,0.00,0.000000,,2013-07-08 02:42:00,
2013-07-07 22:52:00,75.0,73.0,29.94,SW,219,4.0,10.0,93,0.00,,,0.00,0.000000,,2013-07-08 02:52:00,
2013-07-07 23:02:00,75.0,73.0,29.94,SW,219,4.0,10.0,93,0.00,,,0.00,0.000000,,2013-07-08 03:02:00,
2013-07-07 23:12:00,75.0,73.0,29.95,SSW,211,5.0,12.0,93,0.00,,,0.00,0.000000,,2013-07-08 03:12:00,
2013-07-07 23:23:00,75.0,73.0,29.95,SW,234,6.0,12.0,93,0.00,,,0.00,0.000000,,2013-07-08 03:23:00,
2013-07-07 23:34:00,75.0,73.0,29.95,SSW,207,3.0,12.0,94,0.00,,,0.00,0.000000,,2013-07-08 03:34:00,
2013-07-07 23:42:00,75.0,73.0,29.95,SSW,207,3.0,12.0,94,0.00,,,0.00,0.000000,,2013-07-08 03:42:00,
2013-07-07 23:52:00,74.0,72.0,29.94,SW,224,1.0,9.0,94,0.00,,,0.00,0.000000,,2013-07-08 03:52:00,